Time,TemperatureF,DewpointF,PressureIn,WindDirection,WindDirectionDegrees,WindSpeedMPH,WindSpeedGustMPH,Humidity,HourlyPrecipIn,Conditions,Clouds,dailyrainin,SoftwareType,DateUTC
2013-05-02 00:01:00,56.9,46.5,30.24,ENE,69,4.5,6.9,68,0.00,,OVC,0.00,VWS V14.01,2013-05-02 04:01:00,
2013-05-02 00:06:00,56.9,46.5,30.24,ENE,64,5.4,5.4,68,0.00,,OVC,0.00,VWS V14.01,2013-05-02 04:06:00,
2013-05-02 00:11:00,56.9,46.1,30.24,NNE,20,6.3,8.7,67,0.00,,OVC,0.00,VWS V14.01,2013-05-02 04:11:00,
2013-05-02 00:16:00,56.7,45.5,30.24,NE,46,5.4,8.3,66,0.00,,OVC,0.00,VWS V14.01,2013-05-02 04:16:00,
2013-05-02 00:21:00,56.7,45.5,30.24,NE,47,5.8,6.7,66,0.00,,OVC,0.00,VWS V14.01,2013-05-02 04:21:00,
2013-05-02 00:26:00,56.7,45.5,30.24,ENE,65,4.0,5.8,66,0.00,,OVC,0.00,VWS V14.01,2013-05-02 04:26:00,
2013-05-02 00:31:00,56.6,44.5,30.24,NNE,19,4.5,5.8,64,0.00,,OVC,0.00,VWS V14.01,2013-05-02 04:31:00,
2013-05-02 00:36:00,56.6,44.5,30.24,NNE,32,5.8,5.8,64,0.00,,OVC,0.00,VWS V14.01,2013-05-02 04:36:00,
2013-05-02 00:41:00,56.6,44.1,30.24,NE,43,6.3,7.8,63,0.00,,OVC,0.00,VWS V14.01,2013-05-02 04:41:00,
2013-05-02 00:46:00,56.4,44.0,30.24,NE,35,2.7,4.5,63,0.00,,OVC,0.00,VWS V14.01,2013-05-02 04:46:00,
2013-05-02 00:51:00,56.4,44.0,30.24,NE,43,4.5,4.5,63,0.00,,OVC,0.00,VWS V14.01,2013-05-02 04:51:00,
2013-05-02 00:56:00,56.2,43.8,30.24,NE,48,6.3,6.3,63,0.00,,OVC,0.00,VWS V14.01,2013-05-02 04:56:00,
2013-05-02 01:01:00,56.2,43.4,30.24,NE,48,6.7,6.9,62,0.00,,OVC,0.00,VWS V14.01,2013-05-02 05:01:00,
2013-05-02 01:06:00,56.0,42.8,30.24,NNE,27,11.2,11.2,61,0.00,,OVC,0.00,VWS V14.01,2013-05-02 05:06:00,
2013-05-02 01:11:00,56.0,42.8,30.24,ENE,61,5.4,5.4,61,0.00,,OVC,0.00,VWS V14.01,2013-05-02 05:11:00,
2013-05-02 01:16:00,56.0,42.3,30.24,NE,50,4.5,6.3,60,0.00,,OVC,0.00,VWS V14.01,2013-05-02 05:16:00,
2013-05-02 01:21:00,56.0,42.3,30.24,ENE,60,6.7,6.7,60,0.00,,OVC,0.00,VWS V14.01,2013-05-02 05:21:00,
2013-05-02 01:26:00,56.0,41.5,30.24,East,98,5.8,7.4,58,0.00,,OVC,0.00,VWS V14.01,2013-05-02 05:26:00,
2013-05-02 01:31:00,55.8,41.3,30.27,NNE,26,6.7,6.9,58,0.00,,OVC,0.00,VWS V14.01,2013-05-02 05:31:00,
2013-05-02 01:36:00,55.8,41.3,30.27,NNE,29,4.9,5.8,58,0.00,,OVC,0.00,VWS V14.01,2013-05-02 05:36:00,
2013-05-02 01:41:00,55.8,41.7,30.27,ESE,121,5.4,6.3,59,0.00,,OVC,0.00,VWS V14.01,2013-05-02 05:41:00,
2013-05-02 01:46:00,55.8,41.7,30.24,North,2,4.9,5.4,59,0.00,,OVC,0.00,VWS V14.01,2013-05-02 05:46:00,
2013-05-02 01:51:00,55.7,41.6,30.24,NE,54,4.9,4.9,59,0.00,,OVC,0.00,VWS V14.01,2013-05-02 05:51:00,
2013-05-02 01:56:00,55.7,41.6,30.24,NNE,27,4.0,6.9,59,0.00,,OVC,0.00,VWS V14.01,2013-05-02 05:56:00,
2013-05-02 02:01:00,55.7,41.1,30.24,NE,37,4.9,5.8,58,0.00,,OVC,0.00,VWS V14.01,2013-05-02 06:01:00,
2013-05-02 02:06:00,55.7,41.1,30.24,ENE,59,6.7,6.7,58,0.00,,OVC,0.00,VWS V14.01,2013-05-02 06:06:00,
2013-05-02 02:11:00,55.7,41.1,30.24,NE,56,4.5,4.5,58,0.00,,OVC,0.00,VWS V14.01,2013-05-02 06:11:00,
2013-05-02 02:16:00,55.5,41.0,30.24,NE,54,5.4,5.4,58,0.00,,OVC,0.00,VWS V14.01,2013-05-02 06:16:00,
2013-05-02 02:20:00,55.5,40.5,30.24,NE,54,5.4,5.4,57,0.00,,OVC,0.00,VWS V14.01,2013-05-02 06:20:00,
2013-05-02 02:25:00,55.5,40.5,30.24,NE,54,5.4,5.4,57,0.00,,OVC,0.00,VWS V14.01,2013-05-02 06:25:00,
2013-05-02 02:30:00,55.3,40.8,30.24,NE,54,5.4,5.4,58,0.00,,OVC,0.00,VWS V14.01,2013-05-02 06:30:00,
2013-05-02 02:35:00,55.3,40.8,30.24,NE,54,5.4,5.4,58,0.00,,OVC,0.00,VWS V14.01,2013-05-02 06:35:00,
2013-05-02 02:40:00,55.3,40.3,30.24,NE,54,5.4,5.4,57,0.00,,OVC,0.00,VWS V14.01,2013-05-02 06:40:00,
2013-05-02 02:45:00,55.3,40.8,30.24,ENE,71,4.9,6.9,58,0.00,,OVC,0.00,VWS V14.01,2013-05-02 06:45:00,
2013-05-02 02:50:00,55.1,41.1,30.24,NE,37,5.4,8.3,59,0.00,,OVC,0.00,VWS V14.01,2013-05-02 06:50:00,
2013-05-02 02:55:00,55.1,41.5,30.24,NE,44,4.5,6.7,60,0.00,,OVC,0.00,VWS V14.01,2013-05-02 06:55:00,
2013-05-02 03:00:00,54.9,41.8,30.24,ESE,108,6.9,7.4,61,0.00,,OVC,0.00,VWS V14.01,2013-05-02 07:00:00,
2013-05-02 03:05:00,54.9,41.8,30.24,East,97,4.9,6.7,61,0.00,,OVC,0.00,VWS V14.01,2013-05-02 07:05:00,
2013-05-02 03:10:00,54.9,42.2,30.24,ENE,66,4.0,5.4,62,0.00,,OVC,0.00,VWS V14.01,2013-05-02 07:10:00,
2013-05-02 03:15:00,54.9,42.6,30.24,ENE,76,6.3,7.8,63,0.00,,OVC,0.00,VWS V14.01,2013-05-02 07:15:00,
2013-05-02 03:20:00,54.8,42.4,30.24,East,99,5.4,7.4,63,0.00,,OVC,0.00,VWS V14.01,2013-05-02 07:20:00,
2013-05-02 03:25:00,54.8,42.4,30.24,NNE,19,3.1,5.4,63,0.00,,OVC,0.00,VWS V14.01,2013-05-02 07:25:00,
2013-05-02 03:30:00,54.8,42.4,30.24,ENE,63,3.1,6.7,63,0.00,,OVC,0.00,VWS V14.01,2013-05-02 07:30:00,
2013-05-02 03:35:00,54.8,42.8,30.24,North,11,3.6,5.4,64,0.00,,OVC,0.00,VWS V14.01,2013-05-02 07:35:00,
2013-05-02 03:40:00,54.8,42.8,30.24,NE,49,3.6,5.8,64,0.00,,OVC,0.00,VWS V14.01,2013-05-02 07:40:00,
2013-05-02 03:45:00,54.8,42.8,30.24,NNE,25,4.5,5.8,64,0.00,,OVC,0.00,VWS V14.01,2013-05-02 07:45:00,
2013-05-02 03:50:00,54.8,42.8,30.24,NE,49,3.6,3.6,64,0.00,,OVC,0.00,VWS V14.01,2013-05-02 07:50:00,
2013-05-02 03:55:00,54.8,42.8,30.24,NE,43,3.6,4.0,64,0.00,,OVC,0.00,VWS V14.01,2013-05-02 07:55:00,
2013-05-02 04:00:00,54.8,42.8,30.24,ENE,69,6.3,6.3,64,0.00,,OVC,0.00,VWS V14.01,2013-05-02 08:00:00,
2013-05-02 04:05:00,54.8,42.8,30.24,NE,48,4.0,6.7,64,0.00,,OVC,0.00,VWS V14.01,2013-05-02 08:05:00,
2013-05-02 04:10:00,54.8,43.2,30.24,NE,52,6.7,8.7,65,0.00,,OVC,0.00,VWS V14.01,2013-05-02 08:10:00,
2013-05-02 04:15:00,54.8,43.2,30.24,ENE,71,5.4,5.4,65,0.00,,OVC,0.00,VWS V14.01,2013-05-02 08:15:00,
2013-05-02 04:20:00,54.8,43.2,30.24,NE,54,5.4,6.7,65,0.00,,OVC,0.00,VWS V14.01,2013-05-02 08:20:00,
2013-05-02 04:25:00,54.8,43.2,30.24,ENE,60,4.9,6.3,65,0.00,,OVC,0.00,VWS V14.01,2013-05-02 08:25:00,
2013-05-02 04:30:00,54.8,43.6,30.24,NE,50,3.1,6.3,66,0.00,,OVC,0.00,VWS V14.01,2013-05-02 08:30:00,
2013-05-02 04:35:00,54.8,43.6,30.24,NE,47,6.3,7.4,66,0.00,,OVC,0.00,VWS V14.01,2013-05-02 08:35:00,
2013-05-02 04:40:00,54.8,43.6,30.24,ENE,59,4.0,4.9,66,0.00,,OVC,0.00,VWS V14.01,2013-05-02 08:40:00,
2013-05-02 04:45:00,54.8,43.6,30.24,East,80,3.6,5.8,66,0.00,,OVC,0.00,VWS V14.01,2013-05-02 08:45:00,
2013-05-02 04:50:00,54.8,43.6,30.24,NNE,23,4.5,4.5,66,0.00,,OVC,0.00,VWS V14.01,2013-05-02 08:50:00,
2013-05-02 04:55:00,54.8,43.6,30.24,NE,53,4.5,4.5,66,0.00,,OVC,0.00,VWS V14.01,2013-05-02 08:55:00,
2013-05-02 05:00:00,54.8,44.0,30.24,ENE,58,4.9,5.4,67,0.00,,OVC,0.00,VWS V14.01,2013-05-02 09:00:00,
2013-05-02 05:05:00,54.8,43.6,30.24,ENE,63,3.6,3.6,66,0.00,,OVC,0.00,VWS V14.01,2013-05-02 09:05:00,
2013-05-02 05:10:00,54.8,43.6,30.24,NE,38,3.1,4.9,66,0.00,,OVC,0.00,VWS V14.01,2013-05-02 09:10:00,
2013-05-02 05:15:00,54.8,43.6,30.24,NNE,27,5.4,5.4,66,0.00,,OVC,0.00,VWS V14.01,2013-05-02 09:15:00,
2013-05-02 05:20:00,54.8,43.6,30.24,NNE,23,5.4,5.8,66,0.00,,OVC,0.00,VWS V14.01,2013-05-02 09:20:00,
2013-05-02 05:25:00,54.8,43.6,30.24,NNE,26,4.0,4.0,66,0.00,,OVC,0.00,VWS V14.01,2013-05-02 09:25:00,
2013-05-02 05:30:00,54.8,43.2,30.24,NE,46,5.4,5.4,65,0.00,,OVC,0.00,VWS V14.01,2013-05-02 09:30:00,
2013-05-02 05:35:00,54.8,43.2,30.24,ENE,69,6.3,6.3,65,0.00,,OVC,0.00,VWS V14.01,2013-05-02 09:35:00,
2013-05-02 05:40:00,54.8,42.8,30.24,ENE,61,4.9,4.9,64,0.00,,OVC,0.00,VWS V14.01,2013-05-02 09:40:00,
2013-05-02 05:45:00,54.8,42.8,30.24,ENE,77,5.4,6.7,64,0.00,,OVC,0.00,VWS V14.01,2013-05-02 09:45:00,
2013-05-02 05:50:00,54.8,42.8,30.24,NNE,32,6.7,6.7,64,0.00,,OVC,0.00,VWS V14.01,2013-05-02 09:50:00,
2013-05-02 05:55:00,54.8,42.8,30.24,NE,50,6.7,6.7,64,0.00,,OVC,0.00,VWS V14.01,2013-05-02 09:55:00,
2013-05-02 06:00:00,54.8,42.4,30.24,NE,34,2.7,4.5,63,0.00,,OVC,0.00,VWS V14.01,2013-05-02 10:00:00,
2013-05-02 06:05:00,54.8,42.4,30.24,NE,49,5.4,5.4,63,0.00,,OVC,0.00,VWS V14.01,2013-05-02 10:05:00,
2013-05-02 06:10:00,54.8,42.4,30.24,NNE,30,2.7,4.5,63,0.00,,OVC,0.00,VWS V14.01,2013-05-02 10:10:00,
2013-05-02 06:15:00,54.8,42.4,30.24,NE,46,5.8,5.8,63,0.00,,OVC,0.00,VWS V14.01,2013-05-02 10:15:00,
2013-05-02 06:20:00,54.8,42.4,30.24,East,99,6.7,8.3,63,0.00,,OVC,0.00,VWS V14.01,2013-05-02 10:20:00,
2013-05-02 06:25:00,54.8,42.4,30.24,NNE,26,4.5,5.4,63,0.00,,OVC,0.00,VWS V14.01,2013-05-02 10:25:00,
2013-05-02 06:30:00,54.8,42.8,30.24,North,6,5.8,5.8,64,0.00,,OVC,0.00,VWS V14.01,2013-05-02 10:30:00,
2013-05-02 06:35:00,54.8,42.8,30.24,NNW,343,6.7,8.7,64,0.00,,OVC,0.00,VWS V14.01,2013-05-02 10:35:00,
2013-05-02 06:40:00,54.8,42.8,30.24,NE,34,5.8,5.8,64,0.00,,OVC,0.00,VWS V14.01,2013-05-02 10:40:00,
2013-05-02 06:45:00,54.8,43.2,30.24,NE,48,6.3,6.3,65,0.00,,OVC,0.00,VWS V14.01,2013-05-02 10:45:00,
2013-05-02 06:50:00,54.8,43.6,30.24,NE,41,8.7,8.7,66,0.00,,OVC,0.00,VWS V14.01,2013-05-02 10:50:00,
2013-05-02 06:55:00,54.8,44.0,30.24,East,90,5.4,6.9,67,0.00,,OVC,0.00,VWS V14.01,2013-05-02 10:55:00,
2013-05-02 07:00:00,54.8,44.4,30.24,NNE,24,6.3,6.3,68,0.00,,OVC,0.00,VWS V14.01,2013-05-02 11:00:00,
2013-05-02 07:05:00,54.8,44.8,30.24,South,169,4.0,5.8,69,0.00,,OVC,0.00,VWS V14.01,2013-05-02 11:05:00,
2013-05-02 07:10:00,54.8,45.2,30.24,East,91,2.7,3.6,70,0.00,,OVC,0.00,VWS V14.01,2013-05-02 11:10:00,
2013-05-02 07:15:00,54.8,45.2,30.24,NE,37,2.7,4.0,70,0.00,,OVC,0.00,VWS V14.01,2013-05-02 11:15:00,
2013-05-02 07:20:00,54.8,45.2,30.24,NE,39,0.0,0.0,70,0.00,,OVC,0.00,VWS V14.01,2013-05-02 11:20:00,
2013-05-02 07:25:00,54.8,45.5,30.24,ENE,58,4.9,5.4,71,0.00,,OVC,0.00,VWS V14.01,2013-05-02 11:25:00,
2013-05-02 07:30:00,54.8,45.2,30.24,NE,47,2.7,4.5,70,0.00,,OVC,0.00,VWS V14.01,2013-05-02 11:30:00,
2013-05-02 07:35:00,54.8,45.2,30.24,NNE,29,3.1,6.7,70,0.00,,OVC,0.00,VWS V14.01,2013-05-02 11:35:00,
2013-05-02 07:40:00,54.8,45.2,30.24,ENE,78,4.9,6.3,70,0.00,,OVC,0.00,VWS V14.01,2013-05-02 11:40:00,
2013-05-02 07:45:00,54.8,45.5,30.24,NE,40,4.5,4.5,71,0.00,,OVC,0.00,VWS V14.01,2013-05-02 11:45:00,
2013-05-02 07:50:00,54.8,45.5,30.24,NE,39,0.0,3.1,71,0.00,,OVC,0.00,VWS V14.01,2013-05-02 11:50:00,
2013-05-02 07:55:00,54.8,45.2,30.24,NNE,22,4.9,4.9,70,0.00,,OVC,0.00,VWS V14.01,2013-05-02 11:55:00,
2013-05-02 08:00:00,54.8,45.2,30.24,North,0,3.6,5.8,70,0.00,,OVC,0.00,VWS V14.01,2013-05-02 12:00:00,
2013-05-02 08:05:00,54.8,45.5,30.24,East,84,2.7,2.7,71,0.00,,OVC,0.00,VWS V14.01,2013-05-02 12:05:00,
2013-05-02 08:10:00,54.8,45.5,30.24,NNE,33,4.5,4.5,71,0.00,,OVC,0.00,VWS V14.01,2013-05-02 12:10:00,
2013-05-02 08:15:00,54.8,45.2,30.24,NE,39,4.9,4.9,70,0.00,,OVC,0.00,VWS V14.01,2013-05-02 12:15:00,
2013-05-02 08:20:00,54.8,44.8,30.24,NE,54,3.6,3.6,69,0.00,,OVC,0.00,VWS V14.01,2013-05-02 12:20:00,
2013-05-02 08:25:00,54.8,44.8,30.24,NNE,28,4.0,4.0,69,0.00,,OVC,0.00,VWS V14.01,2013-05-02 12:25:00,
2013-05-02 08:30:00,54.8,44.8,30.24,NE,39,4.5,4.5,69,0.00,,OVC,0.00,VWS V14.01,2013-05-02 12:30:00,
2013-05-02 08:35:00,54.8,44.8,30.24,ENE,57,5.4,7.4,69,0.00,,OVC,0.00,VWS V14.01,2013-05-02 12:35:00,
2013-05-02 08:40:00,54.8,44.8,30.27,NE,45,5.4,5.4,69,0.00,,OVC,0.00,VWS V14.01,2013-05-02 12:40:00,
2013-05-02 08:45:00,54.8,43.6,30.27,NE,55,4.9,4.9,66,0.00,,OVC,0.00,VWS V14.01,2013-05-02 12:45:00,
2013-05-02 08:50:00,54.8,43.6,30.27,NE,56,4.5,4.5,66,0.00,,OVC,0.00,VWS V14.01,2013-05-02 12:50:00,
2013-05-02 08:55:00,54.8,43.6,30.27,NW,317,0.0,4.0,66,0.00,,OVC,0.00,VWS V14.01,2013-05-02 12:55:00,
2013-05-02 09:00:00,54.8,43.6,30.27,NE,40,3.1,4.0,66,0.00,,OVC,0.00,VWS V14.01,2013-05-02 13:00:00,
2013-05-02 09:05:00,56.4,45.2,30.27,ENE,64,0.0,6.7,66,0.00,,OVC,0.00,VWS V14.01,2013-05-02 13:05:00,
2013-05-02 09:09:00,56.4,45.2,30.27,North,10,3.6,6.7,66,0.00,,OVC,0.00,VWS V14.01,2013-05-02 13:09:00,
2013-05-02 09:14:00,56.4,45.2,30.27,NE,49,5.8,5.8,66,0.00,,OVC,0.00,VWS V14.01,2013-05-02 13:14:00,
2013-05-02 09:19:00,56.4,45.2,30.27,ENE,65,4.0,4.9,66,0.00,,OVC,0.00,VWS V14.01,2013-05-02 13:19:00,
2013-05-02 09:24:00,56.6,45.3,30.27,NE,35,4.9,6.9,66,0.00,,OVC,0.00,VWS V14.01,2013-05-02 13:24:00,
2013-05-02 09:29:00,56.9,45.7,30.27,NNE,32,4.5,5.4,66,0.00,,OVC,0.00,VWS V14.01,2013-05-02 13:29:00,
2013-05-02 09:34:00,57.3,46.0,30.27,NE,39,2.7,4.9,66,0.00,,OVC,0.00,VWS V14.01,2013-05-02 13:34:00,
2013-05-02 09:39:00,57.6,46.4,30.27,NE,48,6.9,6.9,66,0.00,,OVC,0.00,VWS V14.01,2013-05-02 13:39:00,
2013-05-02 09:44:00,57.6,46.4,30.27,NNE,28,5.4,5.8,66,0.00,,OVC,0.00,VWS V14.01,2013-05-02 13:44:00,
2013-05-02 09:49:00,57.6,46.4,30.27,ENE,58,5.4,7.8,66,0.00,,OVC,0.00,VWS V14.01,2013-05-02 13:49:00,
2013-05-02 09:54:00,58.2,46.9,30.27,NNE,22,5.4,6.9,66,0.00,,OVC,0.00,VWS V14.01,2013-05-02 13:54:00,
2013-05-02 09:59:00,58.4,47.1,30.27,NE,51,5.4,9.2,66,0.00,,OVC,0.00,VWS V14.01,2013-05-02 13:59:00,
2013-05-02 10:04:00,58.5,47.2,30.27,NE,35,6.9,8.7,66,0.00,,OVC,0.00,VWS V14.01,2013-05-02 14:04:00,
2013-05-02 10:09:00,58.7,47.4,30.27,NE,53,6.7,7.4,66,0.00,,OVC,0.00,VWS V14.01,2013-05-02 14:09:00,
2013-05-02 10:14:00,58.7,47.4,30.27,ENE,60,6.9,6.9,66,0.00,,OVC,0.00,VWS V14.01,2013-05-02 14:14:00,
2013-05-02 10:19:00,58.4,47.1,30.27,NE,34,6.3,6.3,66,0.00,,OVC,0.00,VWS V14.01,2013-05-02 14:19:00,
2013-05-02 10:24:00,58.5,47.2,30.27,ENE,62,5.4,7.8,66,0.00,,OVC,0.00,VWS V14.01,2013-05-02 14:24:00,
2013-05-02 10:29:00,58.5,47.2,30.27,ENE,57,5.4,5.4,66,0.00,,OVC,0.00,VWS V14.01,2013-05-02 14:29:00,
2013-05-02 10:34:00,58.4,47.1,30.27,NE,41,5.8,6.9,66,0.00,,OVC,0.00,VWS V14.01,2013-05-02 14:34:00,
2013-05-02 10:40:00,58.2,46.9,30.27,NNE,31,3.6,4.9,66,0.00,,OVC,0.00,VWS V14.01,2013-05-02 14:40:00,
2013-05-02 10:45:00,58.4,47.1,30.27,NE,41,4.5,4.5,66,0.00,,OVC,0.00,VWS V14.01,2013-05-02 14:45:00,
2013-05-02 10:50:00,58.4,47.1,30.27,NE,45,5.4,5.4,66,0.00,,OVC,0.00,VWS V14.01,2013-05-02 14:50:00,
2013-05-02 10:55:00,58.2,46.9,30.27,NE,42,6.7,6.7,66,0.00,,OVC,0.00,VWS V14.01,2013-05-02 14:55:00,
2013-05-02 11:00:00,57.6,46.4,30.27,East,84,3.1,3.1,66,0.00,,OVC,0.00,VWS V14.01,2013-05-02 15:00:00,
2013-05-02 11:05:00,57.6,46.4,30.27,NE,39,4.0,4.9,66,0.00,,OVC,0.00,VWS V14.01,2013-05-02 15:05:00,
2013-05-02 11:10:00,57.6,46.4,30.27,NNE,24,0.0,4.5,66,0.00,,OVC,0.00,VWS V14.01,2013-05-02 15:10:00,
2013-05-02 11:15:00,57.6,46.4,30.27,ENE,71,3.6,5.4,66,0.00,,OVC,0.00,VWS V14.01,2013-05-02 15:15:00,
2013-05-02 11:20:00,58.0,46.7,30.27,NE,44,4.5,6.3,66,0.00,,OVC,0.00,VWS V14.01,2013-05-02 15:20:00,
2013-05-02 11:25:00,58.5,47.2,30.27,ENE,77,3.1,4.9,66,0.00,,OVC,0.00,VWS V14.01,2013-05-02 15:25:00,
2013-05-02 11:30:00,58.7,47.4,30.27,ENE,57,4.5,8.3,66,0.00,,OVC,0.00,VWS V14.01,2013-05-02 15:30:00,
2013-05-02 11:34:00,58.5,47.2,30.27,NE,45,2.7,5.4,66,0.00,,OVC,0.00,VWS V14.01,2013-05-02 15:34:00,
2013-05-02 11:39:00,59.1,47.8,30.27,ENE,70,5.4,6.3,66,0.00,,OVC,0.00,VWS V14.01,2013-05-02 15:39:00,
2013-05-02 11:44:00,59.1,47.8,30.27,NE,43,5.8,5.8,66,0.00,,OVC,0.00,VWS V14.01,2013-05-02 15:44:00,
2013-05-02 11:49:00,58.9,47.6,30.27,ENE,58,3.6,5.4,66,0.00,,OVC,0.00,VWS V14.01,2013-05-02 15:49:00,
2013-05-02 11:54:00,58.7,47.4,30.27,North,351,2.7,3.6,66,0.00,,OVC,0.00,VWS V14.01,2013-05-02 15:54:00,
2013-05-02 11:59:00,59.1,47.8,30.27,NE,54,4.9,6.3,66,0.00,,OVC,0.00,VWS V14.01,2013-05-02 15:59:00,
2013-05-02 12:04:00,59.6,48.3,30.27,NE,54,5.8,5.8,66,0.00,,OVC,0.00,VWS V14.01,2013-05-02 16:04:00,
2013-05-02 12:09:00,59.6,48.3,30.27,North,351,3.1,5.8,66,0.00,,OVC,0.00,VWS V14.01,2013-05-02 16:09:00,
2013-05-02 12:14:00,59.4,48.1,30.27,ENE,64,6.3,6.3,66,0.00,,OVC,0.00,VWS V14.01,2013-05-02 16:14:00,
2013-05-02 12:19:00,59.4,48.1,30.27,NNE,33,5.8,6.9,66,0.00,,OVC,0.00,VWS V14.01,2013-05-02 16:19:00,
2013-05-02 12:24:00,59.4,48.1,30.27,ENE,62,4.9,9.2,66,0.00,,OVC,0.00,VWS V14.01,2013-05-02 16:24:00,
2013-05-02 12:29:00,59.3,47.9,30.27,ENE,73,5.4,7.8,66,0.00,,OVC,0.00,VWS V14.01,2013-05-02 16:29:00,
2013-05-02 12:34:00,59.8,48.4,30.27,ENE,57,4.5,5.4,66,0.00,,OVC,0.00,VWS V14.01,2013-05-02 16:34:00,
2013-05-02 12:39:00,60.5,49.1,30.27,ENE,64,4.5,4.5,66,0.00,,OVC,0.00,VWS V14.01,2013-05-02 16:39:00,
2013-05-02 12:44:00,60.7,49.3,30.27,ENE,65,3.6,4.5,66,0.00,,OVC,0.00,VWS V14.01,2013-05-02 16:44:00,
2013-05-02 12:49:00,60.2,48.8,30.27,ENE,66,0.0,4.5,66,0.00,,OVC,0.00,VWS V14.01,2013-05-02 16:49:00,
2013-05-02 12:54:00,60.0,48.6,30.27,NNE,17,2.7,4.5,66,0.00,,OVC,0.00,VWS V14.01,2013-05-02 16:54:00,
2013-05-02 12:59:00,60.7,49.3,30.27,ENE,68,3.6,5.4,66,0.00,,OVC,0.00,VWS V14.01,2013-05-02 16:59:00,
2013-05-02 13:04:00,60.7,49.3,30.27,North,6,2.7,8.3,66,0.00,,OVC,0.00,VWS V14.01,2013-05-02 17:04:00,
2013-05-02 13:09:00,60.7,49.3,30.27,NNE,18,5.8,5.8,66,0.00,,OVC,0.00,VWS V14.01,2013-05-02 17:09:00,
2013-05-02 13:14:00,60.3,49.0,30.27,NNE,19,4.0,6.9,66,0.00,,OVC,0.00,VWS V14.01,2013-05-02 17:14:00,
2013-05-02 13:19:00,59.6,48.3,30.27,NE,45,6.3,6.3,66,0.00,,OVC,0.00,VWS V14.01,2013-05-02 17:19:00,
2013-05-02 13:24:00,59.8,48.4,30.27,NE,45,7.4,7.4,66,0.00,,OVC,0.00,VWS V14.01,2013-05-02 17:24:00,
2013-05-02 13:29:00,60.2,48.8,30.27,NNE,33,4.9,5.4,66,0.00,,OVC,0.00,VWS V14.01,2013-05-02 17:29:00,
2013-05-02 13:34:00,60.3,49.3,30.27,NNE,29,8.3,8.3,67,0.00,,OVC,0.00,VWS V14.01,2013-05-02 17:34:00,
2013-05-02 13:39:00,60.0,49.0,30.27,NNE,29,8.3,8.3,67,0.00,,OVC,0.00,VWS V14.01,2013-05-02 17:39:00,
2013-05-02 13:44:00,59.8,48.8,30.27,NNE,29,8.3,8.3,67,0.00,,OVC,0.00,VWS V14.01,2013-05-02 17:44:00,
2013-05-02 13:49:00,60.0,49.8,30.27,NNE,29,8.3,8.3,69,0.00,,OVC,0.00,VWS V14.01,2013-05-02 17:49:00,
2013-05-02 13:54:00,60.3,49.8,30.27,NNE,29,8.3,8.3,68,0.00,,OVC,0.00,VWS V14.01,2013-05-02 17:54:00,
2013-05-02 13:59:00,60.0,48.6,30.27,NNE,29,8.3,8.3,66,0.00,,OVC,0.00,VWS V14.01,2013-05-02 17:59:00,
2013-05-02 14:04:00,60.0,49.0,30.27,NNE,23,5.4,8.7,67,0.00,,OVC,0.00,VWS V14.01,2013-05-02 18:04:00,
2013-05-02 14:09:00,60.3,49.0,30.27,NE,55,3.1,5.4,66,0.00,,OVC,0.00,VWS V14.01,2013-05-02 18:09:00,
2013-05-02 14:14:00,60.5,49.1,30.27,NE,49,5.8,5.8,66,0.00,,OVC,0.00,VWS V14.01,2013-05-02 18:14:00,
2013-05-02 14:19:00,60.5,49.1,30.27,NE,46,0.0,4.5,66,0.00,,OVC,0.00,VWS V14.01,2013-05-02 18:19:00,
2013-05-02 14:24:00,60.7,48.9,30.27,NE,52,6.9,7.4,65,0.00,,OVC,0.00,VWS V14.01,2013-05-02 18:24:00,
2013-05-02 14:29:00,60.7,48.9,30.27,ENE,69,4.5,8.3,65,0.00,,OVC,0.00,VWS V14.01,2013-05-02 18:29:00,
2013-05-02 14:34:00,60.7,49.3,30.27,North,10,4.5,4.9,66,0.00,,OVC,0.00,VWS V14.01,2013-05-02 18:34:00,
2013-05-02 14:39:00,60.7,48.0,30.27,North,8,5.8,6.7,63,0.00,,OVC,0.00,VWS V14.01,2013-05-02 18:39:00,
2013-05-02 14:44:00,60.7,48.5,30.27,NNE,30,4.5,5.8,64,0.00,,OVC,0.00,VWS V14.01,2013-05-02 18:44:00,
2013-05-02 14:49:00,60.7,47.6,30.27,East,98,0.0,2.7,62,0.00,,OVC,0.00,VWS V14.01,2013-05-02 18:49:00,
2013-05-02 14:54:00,60.7,48.0,30.27,ENE,58,0.0,3.1,63,0.00,,OVC,0.00,VWS V14.01,2013-05-02 18:54:00,
2013-05-02 14:59:00,60.7,48.0,30.27,NNE,33,4.5,4.9,63,0.00,,OVC,0.00,VWS V14.01,2013-05-02 18:59:00,
2013-05-02 15:04:00,60.7,48.0,30.27,NE,50,3.1,4.5,63,0.00,,OVC,0.00,VWS V14.01,2013-05-02 19:04:00,
2013-05-02 15:09:00,60.7,48.0,30.27,NE,53,5.4,5.4,63,0.00,,OVC,0.00,VWS V14.01,2013-05-02 19:09:00,
2013-05-02 15:14:00,60.7,48.0,30.27,NNE,26,5.4,5.4,63,0.00,,OVC,0.00,VWS V14.01,2013-05-02 19:14:00,
2013-05-02 15:19:00,60.7,48.0,30.27,ENE,63,4.5,4.5,63,0.00,,OVC,0.00,VWS V14.01,2013-05-02 19:19:00,
2013-05-02 15:24:00,60.7,48.0,30.27,NE,41,5.8,5.8,63,0.00,,OVC,0.00,VWS V14.01,2013-05-02 19:24:00,
2013-05-02 15:29:00,60.7,48.0,30.24,East,79,3.6,6.7,63,0.00,,OVC,0.00,VWS V14.01,2013-05-02 19:29:00,
2013-05-02 15:34:00,60.7,48.0,30.24,ENE,69,5.4,5.8,63,0.00,,OVC,0.00,VWS V14.01,2013-05-02 19:34:00,
2013-05-02 15:39:00,60.7,48.0,30.24,NE,46,5.4,5.4,63,0.00,,OVC,0.00,VWS V14.01,2013-05-02 19:39:00,
2013-05-02 15:44:00,60.7,48.0,30.24,NNE,28,4.9,4.9,63,0.00,,OVC,0.00,VWS V14.01,2013-05-02 19:44:00,
2013-05-02 15:49:00,60.7,48.0,30.24,NE,45,5.4,5.4,63,0.00,,OVC,0.00,VWS V14.01,2013-05-02 19:49:00,
2013-05-02 15:54:00,60.7,48.0,30.24,South,179,4.9,4.9,63,0.00,,OVC,0.00,VWS V14.01,2013-05-02 19:54:00,
2013-05-02 15:59:00,60.7,48.0,30.24,ESE,115,4.0,4.0,63,0.00,,OVC,0.00,VWS V14.01,2013-05-02 19:59:00,
2013-05-02 16:04:00,60.7,48.0,30.24,ENE,74,3.1,3.1,63,0.00,,OVC,0.00,VWS V14.01,2013-05-02 20:04:00,
2013-05-02 16:09:00,60.7,48.0,30.24,NE,44,2.7,2.7,63,0.00,,OVC,0.00,VWS V14.01,2013-05-02 20:09:00,
2013-05-02 16:14:00,60.7,48.0,30.24,NE,37,5.4,5.4,63,0.00,,OVC,0.00,VWS V14.01,2013-05-02 20:14:00,
2013-05-02 16:19:00,60.7,48.0,30.24,NE,43,3.1,4.5,63,0.00,,OVC,0.00,VWS V14.01,2013-05-02 20:19:00,
2013-05-02 16:24:00,60.7,48.0,30.24,NNE,22,5.4,5.4,63,0.00,,OVC,0.00,VWS V14.01,2013-05-02 20:24:00,
2013-05-02 16:29:00,60.7,48.0,30.24,NE,42,2.7,4.0,63,0.00,,OVC,0.00,VWS V14.01,2013-05-02 20:29:00,
2013-05-02 16:34:00,60.7,48.0,30.24,NNE,25,4.0,4.0,63,0.00,,OVC,0.00,VWS V14.01,2013-05-02 20:34:00,
2013-05-02 16:39:00,60.7,48.0,30.24,NNE,23,0.0,0.0,63,0.00,,OVC,0.00,VWS V14.01,2013-05-02 20:39:00,
2013-05-02 16:44:00,60.7,48.0,30.24,NE,55,4.0,4.5,63,0.00,,OVC,0.00,VWS V14.01,2013-05-02 20:44:00,
2013-05-02 16:49:00,60.7,48.0,30.24,NE,37,5.4,5.4,63,0.00,,OVC,0.00,VWS V14.01,2013-05-02 20:49:00,
2013-05-02 16:54:00,60.7,48.0,30.24,NE,45,4.5,5.8,63,0.00,,OVC,0.00,VWS V14.01,2013-05-02 20:54:00,
2013-05-02 16:59:00,60.7,48.0,30.24,NW,320,4.0,6.3,63,0.00,,OVC,0.00,VWS V14.01,2013-05-02 20:59:00,
2013-05-02 17:04:00,60.7,48.0,30.24,NE,37,4.9,4.9,63,0.00,,OVC,0.00,VWS V14.01,2013-05-02 21:04:00,
2013-05-02 17:09:00,60.7,48.0,30.24,NE,35,6.3,6.3,63,0.00,,OVC,0.00,VWS V14.01,2013-05-02 21:09:00,
2013-05-02 17:14:00,60.7,48.0,30.21,NNE,33,4.9,4.9,63,0.00,,OVC,0.00,VWS V14.01,2013-05-02 21:14:00,
2013-05-02 17:19:00,60.7,48.0,30.21,NE,38,0.0,0.0,63,0.00,,OVC,0.00,VWS V14.01,2013-05-02 21:19:00,
2013-05-02 17:24:00,60.7,48.0,30.21,ENE,61,0.0,0.0,63,0.00,,OVC,0.00,VWS V14.01,2013-05-02 21:24:00,
2013-05-02 17:29:00,60.7,48.0,30.21,NNE,29,4.9,4.9,63,0.00,,OVC,0.00,VWS V14.01,2013-05-02 21:29:00,
2013-05-02 17:34:00,60.7,48.0,30.21,NE,40,7.4,7.4,63,0.00,,OVC,0.00,VWS V14.01,2013-05-02 21:34:00,
2013-05-02 17:39:00,60.7,48.0,30.21,ENE,72,6.7,6.7,63,0.00,,OVC,0.00,VWS V14.01,2013-05-02 21:39:00,
2013-05-02 17:44:00,61.8,48.6,30.21,ENE,77,3.6,3.6,62,0.00,,OVC,0.00,VWS V14.01,2013-05-02 21:44:00,
2013-05-02 17:49:00,61.6,48.5,30.21,ENE,77,3.6,3.6,62,0.00,,OVC,0.00,VWS V14.01,2013-05-02 21:49:00,
2013-05-02 17:53:00,61.2,48.1,30.21,ENE,77,3.6,3.6,62,0.00,,OVC,0.00,VWS V14.01,2013-05-02 21:53:00,
2013-05-02 17:58:00,60.9,48.2,30.21,ENE,77,3.6,3.6,63,0.00,,OVC,0.00,VWS V14.01,2013-05-02 21:58:00,
2013-05-02 18:03:00,60.3,47.7,30.21,ENE,77,3.6,3.6,63,0.00,,OVC,0.00,VWS V14.01,2013-05-02 22:03:00,
2013-05-02 18:08:00,60.0,47.8,30.21,ESE,116,3.1,7.4,64,0.00,,OVC,0.00,VWS V14.01,2013-05-02 22:08:00,
2013-05-02 18:13:00,59.6,47.8,30.21,NE,49,3.6,4.0,65,0.00,,OVC,0.00,VWS V14.01,2013-05-02 22:13:00,
2013-05-02 18:18:00,59.4,48.1,30.21,North,351,5.8,5.8,66,0.00,,OVC,0.00,VWS V14.01,2013-05-02 22:18:00,
2013-05-02 18:23:00,59.3,48.3,30.21,SE,127,4.0,5.8,67,0.00,,OVC,0.00,VWS V14.01,2013-05-02 22:23:00,
2013-05-02 18:28:00,59.1,48.2,30.21,ENE,57,3.6,5.4,67,0.00,,OVC,0.00,VWS V14.01,2013-05-02 22:28:00,
2013-05-02 18:33:00,59.1,48.2,30.21,ENE,58,0.0,3.6,67,0.00,,OVC,0.00,VWS V14.01,2013-05-02 22:33:00,
2013-05-02 18:38:00,59.3,48.7,30.21,ENE,73,4.0,4.5,68,0.00,,OVC,0.00,VWS V14.01,2013-05-02 22:38:00,
2013-05-02 18:43:00,59.1,48.5,30.21,NW,307,0.0,4.0,68,0.00,,OVC,0.00,VWS V14.01,2013-05-02 22:43:00,
2013-05-02 18:48:00,59.1,48.5,30.21,SW,224,4.5,4.5,68,0.00,,OVC,0.00,VWS V14.01,2013-05-02 22:48:00,
2013-05-02 18:53:00,59.1,48.5,30.21,East,95,3.6,5.4,68,0.00,,OVC,0.00,VWS V14.01,2013-05-02 22:53:00,
2013-05-02 18:58:00,59.1,48.5,30.21,SE,131,0.0,0.0,68,0.00,,OVC,0.00,VWS V14.01,2013-05-02 22:58:00,
2013-05-02 19:03:00,59.1,48.9,30.21,NE,35,3.6,4.0,69,0.00,,OVC,0.00,VWS V14.01,2013-05-02 23:03:00,
2013-05-02 19:08:00,59.1,48.9,30.21,NW,306,3.1,3.1,69,0.00,,OVC,0.00,VWS V14.01,2013-05-02 23:08:00,
2013-05-02 19:13:00,58.9,48.8,30.21,ENE,58,0.0,0.0,69,0.00,,OVC,0.00,VWS V14.01,2013-05-02 23:13:00,
2013-05-02 19:18:00,58.9,48.8,30.21,SSW,197,0.0,0.0,69,0.00,,OVC,0.00,VWS V14.01,2013-05-02 23:18:00,
2013-05-02 19:23:00,58.7,48.6,30.21,South,191,0.0,0.0,69,0.00,,OVC,0.00,VWS V14.01,2013-05-02 23:23:00,
2013-05-02 19:28:00,58.7,49.0,30.21,South,191,0.0,0.0,70,0.00,,OVC,0.00,VWS V14.01,2013-05-02 23:28:00,
2013-05-02 19:33:00,58.7,49.3,30.21,South,191,0.0,0.0,71,0.00,,OVC,0.00,VWS V14.01,2013-05-02 23:33:00,
2013-05-02 19:38:00,58.5,49.2,30.21,South,191,0.0,0.0,71,0.00,,OVC,0.00,VWS V14.01,2013-05-02 23:38:00,
2013-05-02 19:43:00,58.4,49.0,30.21,South,191,0.0,0.0,71,0.00,,OVC,0.00,VWS V14.01,2013-05-02 23:43:00,
2013-05-02 19:48:00,58.2,49.2,30.21,SSW,212,0.0,0.0,72,0.00,,OVC,0.00,VWS V14.01,2013-05-02 23:48:00,
2013-05-02 19:53:00,58.0,49.4,30.21,SSW,198,0.0,0.0,73,0.00,,OVC,0.00,VWS V14.01,2013-05-02 23:53:00,
2013-05-02 19:58:00,57.8,49.6,30.21,SW,236,0.0,0.0,74,0.00,,OVC,0.00,VWS V14.01,2013-05-02 23:58:00,
2013-05-02 20:03:00,57.6,49.8,30.21,SSE,166,0.0,0.0,75,0.00,,OVC,0.00,VWS V14.01,2013-05-03 00:03:00,
2013-05-02 20:08:00,57.5,49.6,30.21,SSE,166,0.0,0.0,75,0.00,,OVC,0.00,VWS V14.01,2013-05-03 00:08:00,
2013-05-02 20:13:00,57.5,49.6,30.21,SE,134,2.7,3.1,75,0.00,,OVC,0.00,VWS V14.01,2013-05-03 00:13:00,
2013-05-02 20:18:00,57.3,49.8,30.21,South,187,0.0,0.0,76,0.00,,OVC,0.00,VWS V14.01,2013-05-03 00:18:00,
2013-05-02 20:23:00,57.3,49.8,30.21,South,187,0.0,0.0,76,0.00,,OVC,0.00,VWS V14.01,2013-05-03 00:23:00,
2013-05-02 20:28:00,57.1,50.0,30.21,South,187,0.0,0.0,77,0.00,,OVC,0.00,VWS V14.01,2013-05-03 00:28:00,
2013-05-02 20:33:00,56.9,49.8,30.21,South,187,0.0,0.0,77,0.00,,OVC,0.00,VWS V14.01,2013-05-03 00:33:00,
2013-05-02 20:38:00,56.2,48.8,30.21,South,187,0.0,0.0,76,0.00,,OVC,0.00,VWS V14.01,2013-05-03 00:38:00,
2013-05-02 20:43:00,55.5,48.0,30.21,South,187,0.0,0.0,76,0.00,,OVC,0.00,VWS V14.01,2013-05-03 00:43:00,
2013-05-02 20:48:00,54.8,47.7,30.21,South,187,0.0,0.0,77,0.00,,OVC,0.00,VWS V14.01,2013-05-03 00:48:00,
2013-05-02 20:53:00,54.2,47.2,30.21,South,187,0.0,0.0,77,0.00,,OVC,0.00,VWS V14.01,2013-05-03 00:53:00,
2013-05-02 20:58:00,53.7,46.7,30.21,South,187,0.0,0.0,77,0.00,,OVC,0.00,VWS V14.01,2013-05-03 00:58:00,
2013-05-02 21:03:00,53.5,46.8,30.21,South,187,0.0,0.0,78,0.00,,OVC,0.00,VWS V14.01,2013-05-03 01:03:00,
2013-05-02 21:08:00,53.3,47.0,30.21,South,187,0.0,0.0,79,0.00,,OVC,0.00,VWS V14.01,2013-05-03 01:08:00,
2013-05-02 21:13:00,53.0,46.6,30.21,South,187,0.0,0.0,79,0.00,,OVC,0.00,VWS V14.01,2013-05-03 01:13:00,
2013-05-02 21:18:00,52.6,46.3,30.21,South,187,0.0,0.0,79,0.00,,OVC,0.00,VWS V14.01,2013-05-03 01:18:00,
2013-05-02 21:23:00,52.2,46.3,30.21,South,187,0.0,0.0,80,0.00,,OVC,0.00,VWS V14.01,2013-05-03 01:23:00,
2013-05-02 21:28:00,52.1,46.4,30.21,South,187,0.0,0.0,81,0.00,,OVC,0.00,VWS V14.01,2013-05-03 01:28:00,
2013-05-02 21:33:00,51.9,46.2,30.21,South,187,0.0,0.0,81,0.00,,OVC,0.00,VWS V14.01,2013-05-03 01:33:00,
2013-05-02 21:38:00,51.7,46.4,30.21,South,187,0.0,0.0,82,0.00,,OVC,0.00,VWS V14.01,2013-05-03 01:38:00,
2013-05-02 21:43:00,51.7,46.7,30.21,South,187,0.0,0.0,83,0.00,,OVC,0.00,VWS V14.01,2013-05-03 01:43:00,
2013-05-02 21:48:00,51.7,47.0,30.21,South,187,0.0,0.0,84,0.00,,OVC,0.00,VWS V14.01,2013-05-03 01:48:00,
2013-05-02 21:53:00,51.9,47.2,30.21,South,187,0.0,0.0,84,0.00,,OVC,0.00,VWS V14.01,2013-05-03 01:53:00,
2013-05-02 21:58:00,52.1,47.7,30.21,South,187,0.0,0.0,85,0.00,,OVC,0.00,VWS V14.01,2013-05-03 01:58:00,
2013-05-02 22:03:00,52.2,47.9,30.21,South,187,0.0,0.0,85,0.00,,OVC,0.00,VWS V14.01,2013-05-03 02:03:00,
2013-05-02 22:08:00,52.6,48.5,30.21,South,187,0.0,0.0,86,0.00,,OVC,0.00,VWS V14.01,2013-05-03 02:08:00,
2013-05-02 22:13:00,52.8,48.7,30.21,South,187,0.0,0.0,86,0.00,,OVC,0.00,VWS V14.01,2013-05-03 02:13:00,
2013-05-02 22:18:00,53.0,49.2,30.21,South,187,0.0,0.0,87,0.00,,OVC,0.00,VWS V14.01,2013-05-03 02:18:00,
2013-05-02 22:23:00,53.1,49.4,30.21,South,187,0.0,0.0,87,0.00,,OVC,0.00,VWS V14.01,2013-05-03 02:23:00,
2013-05-02 22:28:00,53.3,49.9,30.21,South,187,0.0,0.0,88,0.00,,OVC,0.00,VWS V14.01,2013-05-03 02:28:00,
2013-05-02 22:33:00,53.3,49.9,30.21,South,187,0.0,0.0,88,0.00,,OVC,0.00,VWS V14.01,2013-05-03 02:33:00,
2013-05-02 22:38:00,53.3,49.9,30.21,South,187,0.0,0.0,88,0.00,,OVC,0.00,VWS V14.01,2013-05-03 02:38:00,
2013-05-02 22:43:00,53.3,49.9,30.21,South,187,0.0,0.0,88,0.00,,OVC,0.00,VWS V14.01,2013-05-03 02:43:00,
2013-05-02 22:48:00,53.3,50.2,30.21,South,187,0.0,0.0,89,0.00,,OVC,0.00,VWS V14.01,2013-05-03 02:48:00,
2013-05-02 22:53:00,53.3,50.2,30.21,South,187,0.0,0.0,89,0.00,,OVC,0.00,VWS V14.01,2013-05-03 02:53:00,
2013-05-02 22:58:00,53.3,50.2,30.21,South,187,0.0,0.0,89,0.00,,OVC,0.00,VWS V14.01,2013-05-03 02:58:00,
2013-05-02 23:03:00,53.3,50.2,30.21,South,187,0.0,0.0,89,0.00,,OVC,0.00,VWS V14.01,2013-05-03 03:03:00,
2013-05-02 23:08:00,53.3,50.5,30.21,South,187,0.0,0.0,90,0.00,,OVC,0.00,VWS V14.01,2013-05-03 03:08:00,
2013-05-02 23:13:00,54.2,51.4,30.21,South,187,0.0,0.0,90,0.00,,OVC,0.00,VWS V14.01,2013-05-03 03:13:00,
2013-05-02 23:18:00,54.2,51.4,30.21,South,187,0.0,0.0,90,0.00,,OVC,0.00,VWS V14.01,2013-05-03 03:18:00,
2013-05-02 23:23:00,54.2,51.4,30.21,South,187,0.0,0.0,90,0.00,,OVC,0.00,VWS V14.01,2013-05-03 03:23:00,
2013-05-02 23:28:00,54.4,51.5,30.21,South,187,0.0,0.0,90,0.00,,OVC,0.00,VWS V14.01,2013-05-03 03:28:00,
2013-05-02 23:33:00,54.2,51.4,30.21,South,187,0.0,0.0,90,0.00,,OVC,0.00,VWS V14.01,2013-05-03 03:33:00,
2013-05-02 23:38:00,54.2,51.4,30.21,South,187,0.0,0.0,90,0.00,,OVC,0.00,VWS V14.01,2013-05-03 03:38:00,
2013-05-02 23:43:00,54.0,51.2,30.21,South,187,0.0,0.0,90,0.00,,OVC,0.00,VWS V14.01,2013-05-03 03:43:00,
2013-05-02 23:48:00,53.9,51.3,30.21,South,187,0.0,0.0,91,0.00,,OVC,0.00,VWS V14.01,2013-05-03 03:48:00,
2013-05-02 23:53:00,53.9,51.3,30.21,South,187,0.0,0.0,91,0.00,,OVC,0.00,VWS V14.01,2013-05-03 03:53:00,
2013-05-02 23:58:00,53.5,50.9,30.21,South,187,0.0,0.0,91,0.00,,OVC,0.00,VWS V14.01,2013-05-03 03:58:00,